Phaethon — SVAM2 — position and weather

sailwx.info

Track history (hours):
 
Tides and Currents Weather Stations Pressure Air Temp Water Temp Dewpoint Dewpoint Depression Visibility Wind Speed Wind Dir Waves Ship Positions

Phaethon

Last reported at 2016-May-30 03:33 UTC. Time now 2016-May-30 20:26 UTC.
Position N 40°58' E 028°59'.

Length 274 m; draft 9.5 m.

Type: Tanker. MMSI: 240836000.

Date/timePositionNaut miles runAvg speedWind from/ knotsBaromVisibWave heightAir tempDewpointWater temp
2016-May-30 03:33N 40°58' E 028°59'1010.2
2016-May-30 02:33N 40°50' E 028°52'1 0.8
2016-May-30 01:33N 40°49' E 028°52'0 0.2
2016-May-30 00:33N 40°49' E 028°52'0 0.3
2016-May-29 23:33N 40°48' E 028°52'0 0.4
2016-May-29 22:32N 40°48' E 028°52'0 0.4
2016-May-29 21:33N 40°48' E 028°52'1 0.9
2016-May-29 20:33N 40°47' E 028°51'6 5.5
2016-May-29 19:33N 40°43' E 028°46'13810.6
2016-May-29 06:33N 39°55' E 025°56'137 5.0
2016-May-28 03:13N 37°53' E 024°37'811.4
2016-May-28 02:33N 37°46' E 024°34'1111.4
2016-May-28 01:33N 37°35' E 024°29'1111.2
2016-May-28 00:33N 37°27' E 024°19'1111.2
2016-May-27 23:33N 37°17' E 024°13'1111.3
2016-May-27 22:33N 37°06' E 024°08'1211.6
2016-May-27 21:31N 36°55' E 024°02'1111.4
2016-May-27 20:33N 36°46' E 023°56'37311.2
2016-May-26 11:12N 37°42' E 016°13'812.1
2016-May-26 10:33N 37°44' E 016°04'1211.8
2016-May-26 09:33N 37°48' E 015°50'1110.9
2016-May-26 08:33N 37°54' E 015°38'1212.5
2016-May-26 07:33N 38°06' E 015°34'1413.6
2016-May-26 06:33N 38°18' E 015°40'1212.2
2016-May-26 05:33N 38°28' E 015°30'8 8.3
2016-May-26 04:33N 38°33' E 015°22'10 9.6
2016-May-26 03:33N 38°40' E 015°13'1312.9
2016-May-26 02:33N 38°49' E 015°01'1313.0
2016-May-26 01:34N 38°58' E 014°49'1313.3
2016-May-26 00:33N 39°06' E 014°36'4513.4
2016-May-25 21:10N 39°36' E 013°52'1013.5
2016-May-25 20:26N 39°42' E 013°42'26813.4
2016-May-25 00:24N 42°57' E 009°37'1214.2
2016-May-24 23:33N 43°08' E 009°31'1413.7
2016-May-24 22:33N 43°20' E 009°21'1313.4
2016-May-24 21:33N 43°31' E 009°12'1413.6
2016-May-24 20:33N 43°43' E 009°01'1413.7
2016-May-24 19:33N 43°55' E 008°52'1414.0
2016-May-24 18:34N 44°06' E 008°42'1313.3
2016-May-24 17:33N 44°16' E 008°29'1 0.1
2016-May-24 09:16N 44°17' E 008°28'0 0.0
2016-May-24 08:31N 44°17' E 008°28'0 0.0
2016-May-24 07:31N 44°17' E 008°28'0 0.0
2016-May-24 06:31N 44°17' E 008°28'0 0.0
2016-May-24 05:25N 44°17' E 008°28'0 0.0
2016-May-24 04:28N 44°17' E 008°28'0 0.0
2016-May-24 03:25N 44°17' E 008°28'0 0.0
2016-May-24 02:13N 44°17' E 008°28'0 0.0
2016-May-24 01:31N 44°17' E 008°28'0 0.0
2016-May-24 00:31N 44°17' E 008°28'0 0.0
2016-May-23 22:31N 44°17' E 008°28'0 0.0
2016-May-23 07:16N 44°17' E 008°28'0 0.0
2016-May-23 06:33N 44°17' E 008°28'1 1.1
2016-May-23 05:33N 44°16' E 008°28'1 1.2
2016-May-23 04:33N 44°17' E 008°29'0 0.2
2016-May-23 03:26N 44°16' E 008°30'0 0.0
2016-May-23 02:29N 44°16' E 008°30'0 0.0
2016-May-23 01:32N 44°16' E 008°30'0 0.0
2016-May-23 00:32N 44°16' E 008°30'0 0.1
2016-May-22 23:32N 44°16' E 008°30'0 0.1
2016-May-22 22:32N 44°17' E 008°29'0 0.0
2016-May-22 21:32N 44°17' E 008°29'0 0.0
2016-May-22 20:32N 44°17' E 008°29'0 0.0
2016-May-22 19:32N 44°17' E 008°29'0 0.0
2016-May-22 18:32N 44°17' E 008°29'0 0.1
2016-May-22 17:32N 44°16' E 008°29'0 0.0
2016-May-22 16:32N 44°16' E 008°29'0 0.1
2016-May-22 15:32N 44°17' E 008°29'0 0.1
2016-May-22 14:26N 44°17' E 008°29'0 0.1
2016-May-22 13:32N 44°17' E 008°29'0 0.0
2016-May-22 12:32N 44°17' E 008°30'0 0.0
2016-May-22 11:29N 44°17' E 008°29'0 0.0
2016-May-22 10:29N 44°17' E 008°29'0 0.0
2016-May-22 09:32N 44°17' E 008°29'0 0.0
2016-May-22 08:32N 44°17' E 008°29'0 0.1
2016-May-22 07:29N 44°16' E 008°29'0 0.0
2016-May-22 06:32N 44°16' E 008°29'0 0.0
2016-May-22 05:23N 44°16' E 008°30'0 0.0
2016-May-22 04:23N 44°16' E 008°30'0 0.0
2016-May-22 03:32N 44°16' E 008°30'0 0.0
2016-May-22 02:26N 44°16' E 008°30'0 0.1
2016-May-22 01:32N 44°16' E 008°30'2 2.2
2016-May-22 00:33N 44°15' E 008°32'9 9.1
2016-May-21 23:34N 44°06' E 008°33'10 9.8
2016-May-21 22:33N 43°57' E 008°29'8 8.4
2016-May-21 21:33N 43°49' E 008°25'1413.9
2016-May-21 20:33N 43°36' E 008°18'1414.1
2016-May-21 19:33N 43°24' E 008°08'1413.9
2016-May-21 18:33N 43°12' E 007°59'1413.7
2016-May-21 17:33N 43°00' E 007°49'1414.4
2016-May-21 16:33N 42°48' E 007°39'1514.7
2016-May-21 15:33N 42°35' E 007°29'1414.5
2016-May-21 14:33N 42°23' E 007°18'1414.5
2016-May-21 13:34N 42°11' E 007°08'1414.1
2016-May-21 12:33N 41°59' E 006°58'7514.4
2016-May-21 07:21N 40°55' E 006°07'16213.4
2016-May-20 19:13N 38°58' E 003°40'913.7
2016-May-20 18:33N 38°53' E 003°30'1413.6
2016-May-20 17:33N 38°46' E 003°15'1413.8
2016-May-20 16:34N 38°40' E 002°59'1414.0
2016-May-20 15:33N 38°33' E 002°43'12814.1
2016-May-20 06:30N 37°31' E 000°22'1414.7
2016-May-20 05:33N 37°24' E 000°07'1514.8
2016-May-20 04:33N 37°16' W 000°10'  
Track history (hours):
 
Tides and Currents Weather Stations Pressure Air Temp Water Temp Dewpoint Dewpoint Depression Visibility Wind Speed Wind Dir Waves Ship Positions

Phaethon

Last reported at 2016-May-30 03:33 UTC. Time now 2016-May-30 20:26 UTC.
Position N 40°58' E 028°59'.

Length 274 m; draft 9.5 m.

Type: Tanker. MMSI: 240836000.

Date/timePositionNaut miles runAvg speedWind from/ knotsBaromVisibWave heightAir tempDewpointWater temp
2016-May-30 03:33N 40°58' E 028°59'1010.2
2016-May-30 02:33N 40°50' E 028°52'1 0.8
2016-May-30 01:33N 40°49' E 028°52'0 0.2
2016-May-30 00:33N 40°49' E 028°52'0 0.3
2016-May-29 23:33N 40°48' E 028°52'0 0.4
2016-May-29 22:32N 40°48' E 028°52'0 0.4
2016-May-29 21:33N 40°48' E 028°52'1 0.9
2016-May-29 20:33N 40°47' E 028°51'6 5.5
2016-May-29 19:33N 40°43' E 028°46'13810.6
2016-May-29 06:33N 39°55' E 025°56'137 5.0
2016-May-28 03:13N 37°53' E 024°37'811.4
2016-May-28 02:33N 37°46' E 024°34'1111.4
2016-May-28 01:33N 37°35' E 024°29'1111.2
2016-May-28 00:33N 37°27' E 024°19'1111.2
2016-May-27 23:33N 37°17' E 024°13'1111.3
2016-May-27 22:33N 37°06' E 024°08'1211.6
2016-May-27 21:31N 36°55' E 024°02'1111.4
2016-May-27 20:33N 36°46' E 023°56'37311.2
2016-May-26 11:12N 37°42' E 016°13'812.1
2016-May-26 10:33N 37°44' E 016°04'1211.8
2016-May-26 09:33N 37°48' E 015°50'1110.9
2016-May-26 08:33N 37°54' E 015°38'1212.5
2016-May-26 07:33N 38°06' E 015°34'1413.6
2016-May-26 06:33N 38°18' E 015°40'1212.2
2016-May-26 05:33N 38°28' E 015°30'8 8.3
2016-May-26 04:33N 38°33' E 015°22'10 9.6
2016-May-26 03:33N 38°40' E 015°13'1312.9
2016-May-26 02:33N 38°49' E 015°01'1313.0
2016-May-26 01:34N 38°58' E 014°49'1313.3
2016-May-26 00:33N 39°06' E 014°36'4513.4
2016-May-25 21:10N 39°36' E 013°52'1013.5
2016-May-25 20:26N 39°42' E 013°42'26813.4
2016-May-25 00:24N 42°57' E 009°37'1214.2
2016-May-24 23:33N 43°08' E 009°31'1413.7
2016-May-24 22:33N 43°20' E 009°21'1313.4
2016-May-24 21:33N 43°31' E 009°12'1413.6
2016-May-24 20:33N 43°43' E 009°01'1413.7
2016-May-24 19:33N 43°55' E 008°52'1414.0
2016-May-24 18:34N 44°06' E 008°42'1313.3
2016-May-24 17:33N 44°16' E 008°29'1 0.1
2016-May-24 09:16N 44°17' E 008°28'0 0.0
2016-May-24 08:31N 44°17' E 008°28'0 0.0
2016-May-24 07:31N 44°17' E 008°28'0 0.0
2016-May-24 06:31N 44°17' E 008°28'0 0.0
2016-May-24 05:25N 44°17' E 008°28'0 0.0
2016-May-24 04:28N 44°17' E 008°28'0 0.0
2016-May-24 03:25N 44°17' E 008°28'0 0.0
2016-May-24 02:13N 44°17' E 008°28'0 0.0
2016-May-24 01:31N 44°17' E 008°28'0 0.0
2016-May-24 00:31N 44°17' E 008°28'0 0.0
2016-May-23 22:31N 44°17' E 008°28'0 0.0
2016-May-23 07:16N 44°17' E 008°28'0 0.0
2016-May-23 06:33N 44°17' E 008°28'1 1.1
2016-May-23 05:33N 44°16' E 008°28'1 1.2
2016-May-23 04:33N 44°17' E 008°29'0 0.2
2016-May-23 03:26N 44°16' E 008°30'0 0.0
2016-May-23 02:29N 44°16' E 008°30'0 0.0
2016-May-23 01:32N 44°16' E 008°30'0 0.0
2016-May-23 00:32N 44°16' E 008°30'0 0.1
2016-May-22 23:32N 44°16' E 008°30'0 0.1
2016-May-22 22:32N 44°17' E 008°29'0 0.0
2016-May-22 21:32N 44°17' E 008°29'0 0.0
2016-May-22 20:32N 44°17' E 008°29'0 0.0
2016-May-22 19:32N 44°17' E 008°29'0 0.0
2016-May-22 18:32N 44°17' E 008°29'0 0.1
2016-May-22 17:32N 44°16' E 008°29'0 0.0
2016-May-22 16:32N 44°16' E 008°29'0 0.1
2016-May-22 15:32N 44°17' E 008°29'0 0.1
2016-May-22 14:26N 44°17' E 008°29'0 0.1
2016-May-22 13:32N 44°17' E 008°29'0 0.0
2016-May-22 12:32N 44°17' E 008°30'0 0.0
2016-May-22 11:29N 44°17' E 008°29'0 0.0
2016-May-22 10:29N 44°17' E 008°29'0 0.0
2016-May-22 09:32N 44°17' E 008°29'0 0.0
2016-May-22 08:32N 44°17' E 008°29'0 0.1
2016-May-22 07:29N 44°16' E 008°29'0 0.0
2016-May-22 06:32N 44°16' E 008°29'0 0.0
2016-May-22 05:23N 44°16' E 008°30'0 0.0
2016-May-22 04:23N 44°16' E 008°30'0 0.0
2016-May-22 03:32N 44°16' E 008°30'0 0.0
2016-May-22 02:26N 44°16' E 008°30'0 0.1
2016-May-22 01:32N 44°16' E 008°30'2 2.2
2016-May-22 00:33N 44°15' E 008°32'9 9.1
2016-May-21 23:34N 44°06' E 008°33'10 9.8
2016-May-21 22:33N 43°57' E 008°29'8 8.4
2016-May-21 21:33N 43°49' E 008°25'1413.9
2016-May-21 20:33N 43°36' E 008°18'1414.1
2016-May-21 19:33N 43°24' E 008°08'1413.9
2016-May-21 18:33N 43°12' E 007°59'1413.7
2016-May-21 17:33N 43°00' E 007°49'1414.4
2016-May-21 16:33N 42°48' E 007°39'1514.7
2016-May-21 15:33N 42°35' E 007°29'1414.5
2016-May-21 14:33N 42°23' E 007°18'1414.5
2016-May-21 13:34N 42°11' E 007°08'1414.1
2016-May-21 12:33N 41°59' E 006°58'7514.4
2016-May-21 07:21N 40°55' E 006°07'16213.4
2016-May-20 19:13N 38°58' E 003°40'913.7
2016-May-20 18:33N 38°53' E 003°30'1413.6
2016-May-20 17:33N 38°46' E 003°15'1413.8
2016-May-20 16:34N 38°40' E 002°59'1414.0
2016-May-20 15:33N 38°33' E 002°43'12814.1
2016-May-20 06:30N 37°31' E 000°22'1414.7
2016-May-20 05:33N 37°24' E 000°07'1514.8
2016-May-20 04:33N 37°16' W 000°10'  

Dump ship's entire track history